Aérodrome :
LOGIN :

S'inscrire | Disclaimer

   EN    FR    IT 

 










Légende :    VFR   VFR Marginal   IFR   IFR Intensif   IFR Très Intensif
Visi : 
Plafond : 
>= 8 km
>= 3000ft
5 à 8 km
1000 à 3000 ft
1500m à 5 km
500 à 1000 ft
800 à 1500m
200 à 500 ft
< 800m
< 200 ft
Symboles :   Orages  Brouillard  Fortes neiges  Fortes précipitations  Vent > 20 kt
SIGMETs :   Divers  Orages  Givrage  Turbulence  Onde Orograph.  Cendres Volcan.






- Altitude de l'aérodrome : 499 ft
- Code IATA : TLS


LFBO - Toulouse / Blagnac

DERNIER METAR :
  • 150130Z AUTO 16005KT 9000 NSC 06/06 Q1011 TEMPO 4500 BR

METARs EXPIRÉS :
  • 150100Z AUTO 15004KT 9000 NSC 07/06 Q1011 TEMPO 4500 BR
  • 150030Z AUTO 16004KT CAVOK 07/07 Q1011 TEMPO 4500 BR
  • 150000Z AUTO 18003KT CAVOK 07/06 Q1012 TEMPO 4500 BR
  • 142330Z AUTO 17005KT 7000 NSC 08/07 Q1012 TEMPO 4500 BR
  • 142300Z AUTO 14004KT 6000 NSC 08/07 Q1012 TEMPO 4500 BR

TAF TAF LFBO
Valide du 15 à 00h jusqu'au 16 à 06h UTC


142300Z 1500/1606 VRB02KT CAVOK
PROB30
TEMPO 1500/1507 4500 BR
BECMG 1517/1519 14010KT BKN012
TEMPO 1520/1606 BKN008
ATIS : +33 5 62 74 66 36



MET'MAP, la Météo Aéronautique d'un coup d'oeil ! - Copyright ORBIFLY Décembre 2007 - Disclaimer

ORBIFLY MET'MAP TEAM :

Programmation & Développement : Alexandra Zaïnal
Sur une idée originale de : Baudouin d'Aumeries
Assistance à la programmation : Marc-Olivier Méhu
Soutien technique & logistique : Manuel Goepfert

Contact : metmap@orbifly.com




SOURCES & CREDITS :

   NOAA